Ceres, Argentina
Current Conditions -  °F | °C
As of 11:00 AM on Wednesday 26 Nov 2014 (Local Time) from SACO Reporting Station
Few Clouds Few Clouds  
Wind Chill: 73°   Ceiling: Unl
Heat Index: 73°   Visibility: 6mi
Dew Point: 59°   Wind: 13mph
Humidity: 61%   Direction: 360°N
Pressure: 30.06"   Gusts: NA
Location:  29.88°S, 61.94°W
Report Text: SACO 261400Z 36011KT 9999 FEW030FEW040CB 23/15 Q1018
Loading
Personal Weather Stations






























Interactive Weather Map New forecast layout! Learn more

10-Day Weather Forecast

Advertisements
Track Severe Weather on mobile